createdAt,value
2023-01-03T00:00:45.053Z,99487.77
2023-01-03T00:03:49.613Z,99488.96
2023-01-03T00:06:54.746Z,99492.67
2023-01-03T00:09:59.297Z,99493.96
2023-01-03T00:13:03.799Z,99495.03
2023-01-03T00:16:16.021Z,99491.35
2023-01-03T00:19:20.681Z,99496.67
2023-01-03T00:22:25.431Z,99504.45
2023-01-03T00:25:30.110Z,99506.36
2023-01-03T00:28:34.724Z,99506.06
2023-01-03T00:31:39.870Z,99511.70
2023-01-03T00:34:45.016Z,99515.36
2023-01-03T00:37:49.619Z,99527.40
2023-01-03T00:40:54.204Z,99530.61
2023-01-03T00:43:58.746Z,99539.61
2023-01-03T00:47:03.721Z,99542.49
2023-01-03T00:50:08.592Z,99542.40
2023-01-03T00:53:13.079Z,99542.13
2023-01-03T00:56:18.527Z,99545.83
2023-01-03T00:59:23.170Z,99545.58
2023-01-03T01:02:27.903Z,99549.98
2023-01-03T01:05:32.460Z,99551.64
2023-01-03T01:08:37.018Z,99549.39
2023-01-03T01:11:41.736Z,99547.92
2023-01-03T01:14:46.281Z,99552.89
2023-01-03T01:17:50.785Z,99556.59
2023-01-03T01:20:55.420Z,99563.57
2023-01-03T01:24:00.733Z,99565.10
2023-01-03T01:27:05.526Z,99566.52
2023-01-03T01:30:10.743Z,99567.57
2023-01-03T01:33:15.289Z,99567.27
2023-01-03T01:36:21.077Z,99568.60
2023-01-03T01:39:26.434Z,99564.77
2023-01-03T01:42:48.299Z,99564.30
2023-01-03T01:45:53.157Z,99563.05
2023-01-03T01:48:58.572Z,99561.44
2023-01-03T01:52:04.174Z,99557.69
2023-01-03T01:55:13.175Z,99567.00
2023-01-03T01:58:17.976Z,99572.71
2023-01-03T02:01:23.946Z,99562.88
2023-01-03T02:04:30.612Z,99555.68
2023-01-03T02:07:35.916Z,99562.67
2023-01-03T02:10:51.989Z,99563.87
2023-01-03T02:14:04.020Z,99557.39
2023-01-03T02:17:11.952Z,99567.84
2023-01-03T02:20:22.289Z,99572.86
2023-01-03T02:23:46.000Z,99556.02
2023-01-03T02:26:54.699Z,99560.88
2023-01-03T02:30:19.022Z,99567.67
2023-01-03T02:33:29.801Z,99565.34
2023-01-03T02:36:38.743Z,99571.12
2023-01-03T02:39:47.667Z,99576.48
2023-01-03T02:43:01.264Z,99575.94
2023-01-03T02:46:08.700Z,99578.73
2023-01-03T02:49:14.809Z,99577.25
2023-01-03T02:52:20.949Z,99572.03
2023-01-03T02:55:27.421Z,99576.42
2023-01-03T02:58:32.871Z,99577.10
2023-01-03T03:01:38.299Z,99575.77
2023-01-03T03:04:44.257Z,99582.27
2023-01-03T03:07:48.787Z,99583.84
2023-01-03T03:11:11.943Z,99588.95
2023-01-03T03:14:19.792Z,99590.39
2023-01-03T03:17:29.508Z,99588.38
2023-01-03T03:20:51.201Z,99591.77
2023-01-03T03:24:15.292Z,99594.45
2023-01-03T03:27:40.535Z,99595.71
2023-01-03T03:30:46.082Z,99598.87
2023-01-03T03:33:52.918Z,99604.92
2023-01-03T03:37:00.604Z,99605.63
2023-01-03T03:40:23.688Z,99609.06
2023-01-03T03:43:48.283Z,99609.80
2023-01-03T03:46:57.111Z,99608.70
2023-01-03T03:50:03.277Z,99612.33
2023-01-03T03:53:09.447Z,99607.97
2023-01-03T03:56:16.615Z,99613.09
2023-01-03T03:59:22.501Z,99616.02
2023-01-03T04:02:27.599Z,99618.86
2023-01-03T04:05:34.140Z,99622.73
2023-01-03T04:08:38.691Z,99627.22
2023-01-03T04:11:43.445Z,99637.48
2023-01-03T04:14:47.984Z,99646.23
2023-01-03T04:17:52.517Z,99655.98
2023-01-03T04:20:57.522Z,99671.17
2023-01-03T04:24:02.086Z,99678.92
2023-01-03T04:27:06.556Z,99686.11
2023-01-03T04:30:12.611Z,99689.45
2023-01-03T04:33:17.405Z,99701.47
2023-01-03T04:36:22.012Z,99703.27
2023-01-03T04:39:26.539Z,99704.23
2023-01-03T04:42:48.772Z,99705.67
2023-01-03T04:45:53.441Z,99711.13
2023-01-03T04:48:57.955Z,99718.55
2023-01-03T04:52:02.417Z,99722.83
2023-01-03T04:55:07.600Z,99729.23
2023-01-03T04:58:12.071Z,99732.13
2023-01-03T05:01:16.630Z,99732.16
2023-01-03T05:04:21.182Z,99732.67
2023-01-03T05:07:25.686Z,99736.95
2023-01-03T05:10:30.319Z,99738.55
2023-01-03T05:13:35.292Z,99733.65
2023-01-03T05:16:39.919Z,99735.79
2023-01-03T05:19:58.247Z,99739.39
2023-01-03T05:23:20.371Z,99737.64
2023-01-03T05:26:24.908Z,99738.02
2023-01-03T05:29:30.447Z,99741.92
2023-01-03T05:32:35.111Z,99738.63
2023-01-03T05:35:39.608Z,99741.65
2023-01-03T05:38:44.119Z,99741.82
2023-01-03T05:42:00.843Z,99746.59
2023-01-03T05:45:05.653Z,99750.80
2023-01-03T05:48:10.732Z,99755.23
2023-01-03T05:51:15.239Z,99762.61
2023-01-03T05:54:21.315Z,99765.05
2023-01-03T05:57:30.535Z,99768.05
2023-01-03T06:00:39.540Z,99766.89
2023-01-03T06:03:46.422Z,99770.33
2023-01-03T06:06:51.066Z,99774.90
2023-01-03T06:09:55.543Z,99776.66
2023-01-03T06:13:00.012Z,99780.70
2023-01-03T06:16:26.758Z,99787.13
2023-01-03T06:19:31.249Z,99790.42
2023-01-03T06:22:36.218Z,99799.72
2023-01-03T06:25:40.723Z,99808.20
2023-01-03T06:28:45.532Z,99816.82
2023-01-03T06:31:50.039Z,99821.92
2023-01-03T06:34:54.491Z,99828.20
2023-01-03T06:37:58.976Z,99833.56
2023-01-03T06:41:03.888Z,99840.34
2023-01-03T06:44:08.372Z,99842.00
2023-01-03T06:47:30.346Z,99845.31
2023-01-03T06:50:51.945Z,99848.83
2023-01-03T06:53:56.493Z,99853.13
2023-01-03T06:57:01.361Z,99854.39
2023-01-03T07:00:06.797Z,99860.92
2023-01-03T07:03:11.897Z,99868.71
2023-01-03T07:06:16.646Z,99872.91
2023-01-03T07:09:21.154Z,99885.09
2023-01-03T07:12:43.207Z,99886.70
2023-01-03T07:15:48.103Z,99893.52
2023-01-03T07:18:55.338Z,99896.65
2023-01-03T07:22:00.228Z,99901.70
2023-01-03T07:25:04.727Z,99903.43
2023-01-03T07:28:11.065Z,99901.14
2023-01-03T07:31:15.923Z,99906.66
2023-01-03T07:34:20.640Z,99919.08
2023-01-03T07:37:25.216Z,99928.15
2023-01-03T07:40:30.154Z,99932.89
2023-01-03T07:43:40.563Z,99930.05
2023-01-03T07:46:45.275Z,99928.16
2023-01-03T07:49:49.882Z,99933.72
2023-01-03T07:52:54.533Z,99938.79
2023-01-03T07:56:09.126Z,99941.90
2023-01-03T07:59:17.276Z,99945.50
2023-01-03T08:02:21.953Z,99941.90
2023-01-03T08:05:27.159Z,99953.73
2023-01-03T08:08:31.720Z,99952.36
2023-01-03T08:11:53.952Z,99957.23
2023-01-03T08:14:58.562Z,99956.98
2023-01-03T08:18:03.921Z,99956.83
2023-01-03T08:21:08.963Z,99953.97
2023-01-03T08:24:13.531Z,99958.83
2023-01-03T08:27:18.020Z,99961.99
2023-01-03T08:30:22.694Z,99963.84
2023-01-03T08:33:28.048Z,99961.65
2023-01-03T08:36:34.855Z,99965.17
2023-01-03T08:39:42.781Z,99968.82
2023-01-03T08:42:47.944Z,99971.18
2023-01-03T08:45:52.437Z,99973.01
2023-01-03T08:48:57.513Z,99974.04
2023-01-03T08:52:01.977Z,99975.26
2023-01-03T08:55:08.323Z,99975.38
2023-01-03T08:58:12.979Z,99979.31
2023-01-03T09:01:17.802Z,99977.30
2023-01-03T09:04:22.585Z,99975.17
2023-01-03T09:07:27.092Z,99972.31
2023-01-03T09:10:31.713Z,99971.86
2023-01-03T09:13:36.703Z,99974.52
2023-01-03T09:16:47.007Z,99981.35
2023-01-03T09:19:53.501Z,99989.87
2023-01-03T09:22:58.022Z,100002.41
2023-01-03T09:26:02.782Z,100001.61
2023-01-03T09:29:07.327Z,99998.88
2023-01-03T09:32:11.938Z,99999.11
2023-01-03T09:35:16.710Z,99994.59
2023-01-03T09:38:21.447Z,99989.26
2023-01-03T09:41:26.967Z,99984.83
2023-01-03T09:44:31.495Z,99987.27
2023-01-03T09:47:37.375Z,99987.92
2023-01-03T09:51:15.787Z,99985.80
2023-01-03T09:54:29.325Z,99986.02
2023-01-03T09:57:53.230Z,99981.61
2023-01-03T10:01:19.118Z,99975.52
2023-01-03T10:04:36.012Z,99979.94
2023-01-03T10:07:49.650Z,99981.98
2023-01-03T10:11:02.123Z,99981.69
2023-01-03T10:14:13.071Z,99981.30
2023-01-03T10:17:22.049Z,99984.45
2023-01-03T10:20:33.433Z,99983.48
2023-01-03T10:23:38.830Z,99983.79
2023-01-03T10:26:43.462Z,99980.46
2023-01-03T10:29:49.262Z,99980.46
2023-01-03T10:33:10.227Z,99983.09
2023-01-03T10:36:15.422Z,99984.33
2023-01-03T10:39:29.869Z,99985.91
2023-01-03T10:42:35.293Z,99988.98
2023-01-03T10:45:51.353Z,99993.26
2023-01-03T10:49:26.520Z,99997.37
2023-01-03T10:52:23.993Z,99997.52
2023-01-03T10:55:28.836Z,100000.88
2023-01-03T10:58:36.526Z,99997.77
2023-01-03T11:01:41.509Z,99998.63
2023-01-03T11:04:46.186Z,100000.77
2023-01-03T11:07:54.733Z,99999.66
2023-01-03T11:10:59.976Z,99999.27
2023-01-03T11:14:11.940Z,100002.30
2023-01-03T11:17:17.648Z,99996.62
2023-01-03T11:20:22.738Z,99993.08
2023-01-03T11:23:32.468Z,99987.94
2023-01-03T11:26:43.157Z,99989.84
2023-01-03T11:30:08.994Z,99988.73
2023-01-03T11:33:29.048Z,99990.27
2023-01-03T11:36:42.244Z,99983.73
2023-01-03T11:39:55.657Z,99977.44
2023-01-03T11:43:05.378Z,99970.36
2023-01-03T11:46:18.993Z,99967.77
2023-01-03T11:49:28.580Z,99970.15
2023-01-03T11:52:37.371Z,99972.31
2023-01-03T11:55:52.672Z,99979.22
2023-01-03T11:59:11.405Z,99981.02
2023-01-03T12:02:41.690Z,99982.68
2023-01-03T12:05:57.161Z,99979.51
2023-01-03T12:09:11.637Z,99979.95
2023-01-03T12:12:38.957Z,99973.99
2023-01-03T12:15:46.602Z,99967.66
2023-01-03T12:18:54.423Z,99969.62
2023-01-03T12:22:04.072Z,99968.09
2023-01-03T12:25:15.453Z,99958.88
2023-01-03T12:28:22.601Z,99955.91
2023-01-03T12:31:32.229Z,99957.13
2023-01-03T12:34:41.124Z,99952.91
2023-01-03T12:37:47.060Z,99952.27
2023-01-03T12:40:53.941Z,99952.05
2023-01-03T12:44:00.855Z,99957.41
2023-01-03T12:47:07.130Z,99964.83
2023-01-03T12:50:17.691Z,99966.67
2023-01-03T12:53:26.891Z,99965.17
2023-01-03T12:56:48.509Z,99963.68
2023-01-03T12:59:59.292Z,99963.20
2023-01-03T13:03:09.132Z,99959.39
2023-01-03T13:06:17.569Z,99963.81
2023-01-03T13:09:24.343Z,99961.86
2023-01-03T13:12:30.468Z,99958.98
2023-01-03T13:15:37.481Z,99958.25
2023-01-03T13:18:42.215Z,99954.64
2023-01-03T13:22:02.989Z,99949.02
2023-01-03T13:25:20.884Z,99947.57
2023-01-03T13:28:37.611Z,99947.14
2023-01-03T13:31:42.434Z,99950.20
2023-01-03T13:35:06.929Z,99951.46
2023-01-03T13:38:24.845Z,99955.17
2023-01-03T13:41:34.161Z,99959.48
2023-01-03T13:44:39.751Z,99959.65
2023-01-03T13:47:45.559Z,99958.69
2023-01-03T13:51:15.835Z,99958.83
2023-01-03T13:54:36.152Z,99959.37
2023-01-03T13:57:53.638Z,99962.31
2023-01-03T14:01:05.566Z,99964.46
2023-01-03T14:04:35.888Z,99967.71
2023-01-03T14:07:56.599Z,99966.30
2023-01-03T14:11:12.918Z,99962.98
2023-01-03T14:14:19.176Z,99963.04
2023-01-03T14:17:26.715Z,99969.52
2023-01-03T14:20:33.519Z,99973.92
2023-01-03T14:24:07.956Z,99973.92
2023-01-03T14:27:11.503Z,99974.98
2023-01-03T14:30:24.230Z,99976.14
2023-01-03T14:33:32.867Z,99976.33
2023-01-03T14:36:45.642Z,99976.59
2023-01-03T14:39:56.299Z,99982.63
2023-01-03T14:43:04.489Z,99980.55
2023-01-03T14:46:09.896Z,99984.81
2023-01-03T14:49:20.759Z,99983.92
2023-01-03T14:52:29.825Z,99981.14
2023-01-03T14:55:34.977Z,99984.79
2023-01-03T14:58:40.513Z,99989.10
2023-01-03T15:01:46.044Z,99988.90
2023-01-03T15:04:53.582Z,99985.93
2023-01-03T15:08:08.289Z,99986.55
2023-01-03T15:11:14.283Z,99990.75
2023-01-03T15:14:19.130Z,99990.96
2023-01-03T15:17:27.228Z,99989.61
2023-01-03T15:20:35.410Z,99989.52
2023-01-03T15:23:41.251Z,99993.27
2023-01-03T15:26:47.180Z,99997.39
2023-01-03T15:29:51.606Z,100004.25
2023-01-03T15:32:57.980Z,100007.37
2023-01-03T15:36:04.313Z,100009.48
2023-01-03T15:39:15.912Z,100012.13
2023-01-03T15:42:50.250Z,100014.81
2023-01-03T15:46:02.966Z,100017.53
2023-01-03T15:49:08.033Z,100018.21
2023-01-03T15:52:14.560Z,100022.64
2023-01-03T15:55:19.239Z,100027.77
2023-01-03T15:58:25.201Z,100032.32
2023-01-03T16:01:29.815Z,100035.49
2023-01-03T16:04:34.520Z,100040.32
2023-01-03T16:07:40.342Z,100042.45
2023-01-03T16:10:44.883Z,100050.70
2023-01-03T16:13:51.382Z,100053.95
2023-01-03T16:16:57.050Z,100055.56
2023-01-03T16:20:01.871Z,100060.52
2023-01-03T16:23:06.548Z,100064.66
2023-01-03T16:26:11.025Z,100066.27
2023-01-03T16:29:16.095Z,100068.72
2023-01-03T16:32:21.434Z,100069.06
2023-01-03T16:35:26.320Z,100070.29
2023-01-03T16:38:31.798Z,100073.81
2023-01-03T16:41:36.332Z,100076.51
2023-01-03T16:44:41.673Z,100080.95
2023-01-03T16:47:46.388Z,100081.77
2023-01-03T16:50:52.949Z,100082.46
2023-01-03T16:53:58.172Z,100085.55
2023-01-03T16:57:03.015Z,100088.17
2023-01-03T17:00:15.127Z,100090.70
2023-01-03T17:03:19.812Z,100097.43
2023-01-03T17:06:33.509Z,100105.55
2023-01-03T17:09:41.811Z,100105.42
2023-01-03T17:12:46.360Z,100107.04
2023-01-03T17:15:51.067Z,100109.73
2023-01-03T17:18:55.966Z,100111.98
2023-01-03T17:22:00.525Z,100112.41
2023-01-03T17:25:05.391Z,100116.27
2023-01-03T17:28:11.681Z,100119.95
2023-01-03T17:31:17.683Z,100116.30
2023-01-03T17:34:24.468Z,100116.84
2023-01-03T17:37:29.042Z,100106.39
2023-01-03T17:40:34.626Z,100106.36
2023-01-03T17:43:39.240Z,100116.91
2023-01-03T17:47:01.423Z,100119.75
2023-01-03T17:50:06.312Z,100125.54
2023-01-03T17:53:11.798Z,100126.05
2023-01-03T17:56:17.928Z,100125.77
2023-01-03T17:59:22.447Z,100126.85
2023-01-03T18:02:27.389Z,100126.91
2023-01-03T18:05:32.510Z,100129.64
2023-01-03T18:08:37.107Z,100132.44
2023-01-03T18:11:41.643Z,100129.75
2023-01-03T18:14:46.446Z,100130.90
2023-01-03T18:17:51.256Z,100134.17
2023-01-03T18:20:56.163Z,100138.08
2023-01-03T18:24:02.599Z,100143.29
2023-01-03T18:27:07.202Z,100142.85
2023-01-03T18:30:14.510Z,100143.83
2023-01-03T18:33:19.018Z,100140.94
2023-01-03T18:36:28.000Z,100140.93
2023-01-03T18:39:32.929Z,100141.84
2023-01-03T18:42:54.719Z,100142.96
2023-01-03T18:45:59.372Z,100142.48
2023-01-03T18:49:04.075Z,100143.89
2023-01-03T18:52:14.423Z,100147.07
2023-01-03T18:55:21.297Z,100147.70
2023-01-03T18:58:31.765Z,100148.11
2023-01-03T19:01:36.458Z,100146.88
2023-01-03T19:04:42.933Z,100143.95
2023-01-03T19:07:52.905Z,100136.38
2023-01-03T19:10:58.780Z,100135.90
2023-01-03T19:14:04.223Z,100142.34
2023-01-03T19:17:12.418Z,100140.46
2023-01-03T19:20:19.540Z,100143.52
2023-01-03T19:23:28.219Z,100147.16
2023-01-03T19:26:34.787Z,100148.94
2023-01-03T19:29:39.712Z,100153.26
2023-01-03T19:32:45.049Z,100153.48
2023-01-03T19:35:49.826Z,100151.52
2023-01-03T19:38:54.425Z,100152.45
2023-01-03T19:42:17.856Z,100154.63
2023-01-03T19:45:27.623Z,100152.39
2023-01-03T19:48:32.217Z,100148.92
2023-01-03T19:51:38.443Z,100151.98
2023-01-03T19:54:43.092Z,100148.48
2023-01-03T19:57:49.090Z,100148.59
2023-01-03T20:00:54.370Z,100152.15
2023-01-03T20:03:59.406Z,100153.18
2023-01-03T20:07:04.097Z,100153.90
2023-01-03T20:10:10.596Z,100154.52
2023-01-03T20:13:19.054Z,100154.64
2023-01-03T20:16:23.981Z,100158.68
2023-01-03T20:19:30.794Z,100158.63
2023-01-03T20:23:03.786Z,100153.55
2023-01-03T20:25:59.877Z,100156.42
2023-01-03T20:29:05.505Z,100160.14
2023-01-03T20:32:10.129Z,100162.09
2023-01-03T20:36:07.089Z,100164.31
2023-01-03T20:38:44.840Z,100166.26
2023-01-03T20:41:49.343Z,100173.25
2023-01-03T20:44:53.879Z,100172.49
2023-01-03T20:47:58.750Z,100174.35
2023-01-03T20:51:03.214Z,100178.06
2023-01-03T20:54:07.957Z,100176.73
2023-01-03T20:57:16.354Z,100176.36
2023-01-03T21:00:23.106Z,100179.81
2023-01-03T21:03:27.730Z,100179.77
2023-01-03T21:06:34.489Z,100184.56
2023-01-03T21:09:38.967Z,100183.91
2023-01-03T21:12:43.626Z,100184.15
2023-01-03T21:15:48.672Z,100180.25
2023-01-03T21:18:53.301Z,100180.65
2023-01-03T21:21:59.378Z,100178.84
2023-01-03T21:25:03.890Z,100180.91
2023-01-03T21:28:08.407Z,100181.58
2023-01-03T21:31:17.995Z,100180.65
2023-01-03T21:34:22.681Z,100183.52
2023-01-03T21:37:27.227Z,100183.41
2023-01-03T21:40:32.611Z,100182.92
2023-01-03T21:43:37.198Z,100183.89
2023-01-03T21:46:43.297Z,100185.95
2023-01-03T21:49:47.790Z,100186.30
2023-01-03T21:52:52.314Z,100189.95
2023-01-03T21:55:56.862Z,100193.32
2023-01-03T21:59:01.398Z,100192.92
2023-01-03T22:02:31.954Z,100202.36
2023-01-03T22:05:36.615Z,100203.84
2023-01-03T22:08:41.234Z,100210.08
2023-01-03T22:11:45.796Z,100211.93
2023-01-03T22:14:50.393Z,100211.80
2023-01-03T22:17:55.391Z,100212.93
2023-01-03T22:21:02.440Z,100213.25
2023-01-03T22:24:07.702Z,100212.40
2023-01-03T22:27:12.277Z,100215.58
2023-01-03T22:30:17.408Z,100217.45
2023-01-03T22:33:21.935Z,100217.04
2023-01-03T22:36:26.489Z,100219.98
2023-01-03T22:39:31.034Z,100222.17
2023-01-03T22:42:35.723Z,100221.30
2023-01-03T22:45:41.196Z,100221.16
2023-01-03T22:48:46.111Z,100223.66
2023-01-03T22:51:50.616Z,100225.49
2023-01-03T22:54:55.065Z,100223.22
2023-01-03T22:57:59.614Z,100222.10
2023-01-03T23:01:08.219Z,100221.55
2023-01-03T23:04:13.064Z,100219.05
2023-01-03T23:07:17.788Z,100220.20
2023-01-03T23:10:22.258Z,100221.58
2023-01-03T23:13:26.954Z,100226.60
2023-01-03T23:16:32.444Z,100225.45
2023-01-03T23:19:37.195Z,100221.91
2023-01-03T23:22:43.893Z,100217.29
2023-01-03T23:25:48.396Z,100214.45
2023-01-03T23:28:54.909Z,100215.77
2023-01-03T23:31:59.517Z,100213.21
2023-01-03T23:35:04.108Z,100210.90
2023-01-03T23:38:08.631Z,100210.00
2023-01-03T23:41:13.289Z,100213.71
2023-01-03T23:44:18.804Z,100219.91
2023-01-03T23:47:23.452Z,100215.70
2023-01-03T23:50:27.998Z,100216.23
2023-01-03T23:53:32.497Z,100218.34
2023-01-03T23:56:37.036Z,100216.20
2023-01-03T23:59:42.397Z,100214.48
